Time;durP1;ratioP1;P1;durP2;ratioP2;P2;SDS_P1;SDS_P2;PMS_P1;PMS_P2;Temp;Humidity;BMP_temperature;BMP_pressure;BME280_temperature;BME280_humidity;BME280_pressure;Samples;Min_cycle;Max_cycle;Signal;HPM_P1;HPM_P2
2022/05/26 00:00:10;;;;;;;;;;;;;;;21.00;69.00;100797.69;7404589;19;1855;-61
2022/05/26 00:02:41;;;;;;;;;;;;;;;21.01;68.89;100805.63;7402078;19;1609;-62
2022/05/26 00:05:10;;;;;;;;;;;;;;;21.04;68.83;100799.94;7402615;19;1440;-61
2022/05/26 00:07:38;;;;;;;;;;;;;;;20.99;69.01;100783.41;7404180;19;1550;-60
2022/05/26 00:10:07;;;;;;;;;;;;;;;21.00;68.72;100789.63;7404055;19;1728;-70
2022/05/26 00:12:36;;;;;;;;;;;;;;;21.00;68.79;100789.63;7404136;19;1573;-70
2022/05/26 00:15:05;;;;;;;;;;;;;;;20.98;68.74;100781.69;7401836;19;1632;-69
2022/05/26 00:17:33;;;;;;;;;;;;;;;20.98;68.78;100795.16;7401908;19;1864;-61
2022/05/26 00:20:04;;;;;;;;;;;;;;;20.98;68.49;100784.38;7404692;19;1533;-61
2022/05/26 00:22:32;;;;;;;;;;;;;;;20.98;68.50;100765.56;7405788;19;972;-70
2022/05/26 00:25:01;;;;;;;;;;;;;;;20.98;68.44;100775.50;7403641;19;1580;-62
2022/05/26 00:27:29;;;;;;;;;;;;;;;21.00;68.44;100757.38;7402677;19;1372;-61
2022/05/26 00:29:58;;;;;;;;;;;;;;;20.98;68.09;100770.13;7404272;19;1330;-70
2022/05/26 00:32:26;;;;;;;;;;;;;;;20.97;67.94;100752.28;7402381;19;1632;-69
2022/05/26 00:34:54;;;;;;;;;;;;;;;20.93;67.93;100754.44;7404818;19;1541;-69
2022/05/26 00:37:25;;;;;;;;;;;;;;;20.96;67.82;100758.66;7403079;19;1853;-69
2022/05/26 00:39:54;;;;;;;;;;;;;;;20.97;67.82;100758.53;7404536;19;1607;-61
2022/05/26 00:42:22;;;;;;;;;;;;;;;20.96;67.85;100755.97;7402279;19;1605;-69
2022/05/26 00:44:50;;;;;;;;;;;;;;;20.92;67.78;100749.19;7404804;19;1548;-69
2022/05/26 00:47:21;;;;;;;;;;;;;;;20.94;67.99;100744.53;7409406;19;1582;-61
2022/05/26 00:49:51;;;;;;;;;;;;;;;20.93;68.23;100769.69;7410825;19;1509;-69
2022/05/26 00:52:21;;;;;;;;;;;;;;;20.93;68.22;100742.81;7409811;19;1688;-60
2022/05/26 00:54:55;;;;;;;;;;;;;;;20.93;68.40;100742.81;7409507;19;1358;-69
2022/05/26 00:57:25;;;;;;;;;;;;;;;20.95;68.34;100748.88;7409360;19;1853;-69
2022/05/26 00:59:58;;;;;;;;;;;;;;;20.94;68.10;100745.38;7409932;19;1680;-69
2022/05/26 01:02:32;;;;;;;;;;;;;;;20.92;68.18;100752.72;7406787;19;1651;-69
2022/05/26 01:05:02;;;;;;;;;;;;;;;20.92;68.28;100755.41;7410387;19;1568;-61
2022/05/26 01:07:32;;;;;;;;;;;;;;;20.95;68.13;100754.25;7410083;19;1362;-61
2022/05/26 01:10:03;;;;;;;;;;;;;;;20.90;68.23;100746.66;7409815;19;1621;-70
2022/05/26 01:12:32;;;;;;;;;;;;;;;20.91;68.12;100753.75;7409577;19;1529;-61
2022/05/26 01:15:04;;;;;;;;;;;;;;;20.94;67.89;100758.81;7408978;19;1537;-60
2022/05/26 01:17:38;;;;;;;;;;;;;;;20.93;68.07;100741.00;7405185;19;1862;-69
2022/05/26 01:20:24;;;;;;;;;;;;;;;20.92;67.80;100752.72;7408352;19;1358;-61
2022/05/26 01:23:03;;;;;;;;;;;;;;;20.91;67.94;100744.81;7409667;19;1317;-69
2022/05/26 01:25:59;;;;;;;;;;;;;;;20.84;68.10;100744.56;7409732;19;1770;-70
2022/05/26 01:28:37;;;;;;;;;;;;;;;20.86;67.97;100742.56;7410091;19;1538;-61
2022/05/26 01:31:26;;;;;;;;;;;;;;;20.83;68.49;100743.72;7408757;19;1894;-61
2022/05/26 01:34:02;;;;;;;;;;;;;;;20.86;67.94;100737.19;7409374;19;1574;-60
2022/05/26 01:36:35;;;;;;;;;;;;;;;20.89;68.15;100726.16;7407084;19;1858;-61
2022/05/26 01:39:12;;;;;;;;;;;;;;;20.90;67.79;100737.75;7408301;19;1752;-70
2022/05/26 01:41:49;;;;;;;;;;;;;;;20.87;67.81;100738.91;7406860;19;1556;-66
2022/05/26 01:44:24;;;;;;;;;;;;;;;20.89;67.96;100736.91;7406986;19;1355;-61
2022/05/26 01:46:58;;;;;;;;;;;;;;;20.88;67.67;100745.97;7408695;19;1526;-70
2022/05/26 01:49:31;;;;;;;;;;;;;;;20.90;67.65;100746.66;7409286;19;1521;-70
2022/05/26 01:52:03;;;;;;;;;;;;;;;20.89;67.74;100742.28;7409327;19;1636;-61
2022/05/26 01:54:35;;;;;;;;;;;;;;;20.91;67.48;100756.44;7407825;19;1303;-69
2022/05/26 01:57:06;;;;;;;;;;;;;;;20.91;67.71;100745.69;7404817;19;1874;-61
2022/05/26 01:59:37;;;;;;;;;;;;;;;20.89;67.44;100747.66;7407741;19;1669;-61
2022/05/26 02:02:11;;;;;;;;;;;;;;;20.87;67.72;100749.66;7398131;19;1409;-61
2022/05/26 02:04:42;;;;;;;;;;;;;;;20.91;67.52;100756.44;7407342;19;1310;-61
2022/05/26 02:07:13;;;;;;;;;;;;;;;20.86;67.67;100767.59;7408136;19;1526;-61
2022/05/26 02:09:43;;;;;;;;;;;;;;;20.88;67.76;100751.34;7408285;19;1602;-61
2022/05/26 02:12:15;;;;;;;;;;;;;;;20.86;67.28;100766.75;7407840;19;1645;-61
2022/05/26 02:14:47;;;;;;;;;;;;;;;20.85;67.21;100757.88;7406598;19;1668;-61
2022/05/26 02:17:21;;;;;;;;;;;;;;;20.86;67.54;100766.75;7404740;19;1856;-61
2022/05/26 02:19:52;;;;;;;;;;;;;;;20.83;67.37;100764.34;7406216;19;1541;-61
2022/05/26 02:22:22;;;;;;;;;;;;;;;20.84;67.66;100779.50;7405721;19;1465;-61
2022/05/26 02:24:53;;;;;;;;;;;;;;;20.85;67.57;100786.59;7404846;19;1754;-61
2022/05/26 02:27:23;;;;;;;;;;;;;;;20.84;67.68;100811.75;7405022;19;1451;-61
2022/05/26 02:29:51;;;;;;;;;;;;;;;20.85;67.33;100829.59;7405887;19;1616;-61
2022/05/26 02:32:24;;;;;;;;;;;;;;;20.91;67.27;100863.94;7403997;19;1530;-61
2022/05/26 02:34:54;;;;;;;;;;;;;;;20.88;67.05;100871.44;7406121;19;1561;-61
2022/05/26 02:37:24;;;;;;;;;;;;;;;20.83;67.33;100899.63;7406531;19;1856;-61
2022/05/26 02:39:53;;;;;;;;;;;;;;;20.79;67.57;100886.59;7406049;19;1358;-61
2022/05/26 02:42:22;;;;;;;;;;;;;;;20.68;66.49;100866.13;7405174;19;1541;-61
2022/05/26 02:44:51;;;;;;;;;;;;;;;20.72;67.85;100890.88;7403763;19;1520;-61
2022/05/26 02:47:30;;;;;;;;;;;;;;;20.79;67.33;100895.53;7403634;19;1629;-61
2022/05/26 02:50:02;;;;;;;;;;;;;;;20.82;67.53;100918.56;7406539;19;1537;-61
2022/05/26 02:52:34;;;;;;;;;;;;;;;20.84;67.16;100911.22;7405347;19;1821;-61
2022/05/26 02:55:10;;;;;;;;;;;;;;;20.83;67.29;100933.69;7405412;19;1449;-61
2022/05/26 02:57:43;;;;;;;;;;;;;;;20.85;67.08;100942.50;7406015;19;1855;-61
2022/05/26 03:00:16;;;;;;;;;;;;;;;20.78;67.36;100919.84;7405968;19;1660;-61
2022/05/26 03:02:51;;;;;;;;;;;;;;;20.78;67.44;100918.00;7402587;19;1542;-61
2022/05/26 03:05:22;;;;;;;;;;;;;;;20.80;67.62;100924.09;7404250;19;1345;-61
2022/05/26 03:07:54;;;;;;;;;;;;;;;20.84;67.21;100925.50;7405651;19;1570;-61
2022/05/26 03:10:25;;;;;;;;;;;;;;;20.84;66.96;100900.47;7405919;19;1673;-61
2022/05/26 03:12:55;;;;;;;;;;;;;;;20.82;66.55;100922.09;7405060;19;1668;-61
2022/05/26 03:15:24;;;;;;;;;;;;;;;20.82;66.80;100902.44;7405440;19;1716;-61
2022/05/26 03:17:55;;;;;;;;;;;;;;;20.80;66.51;100904.44;7403811;19;1849;-61
2022/05/26 03:20:23;;;;;;;;;;;;;;;20.83;66.61;100901.44;7404601;19;1495;-61
2022/05/26 03:22:51;;;;;;;;;;;;;;;20.83;66.90;100890.69;7405682;19;1008;-61
2022/05/26 03:25:20;;;;;;;;;;;;;;;20.81;66.75;100884.59;7404421;19;1632;-61
2022/05/26 03:27:48;;;;;;;;;;;;;;;20.80;66.97;100891.81;7402982;19;1545;-61
2022/05/26 03:30:17;;;;;;;;;;;;;;;20.82;67.12;100897.91;7405282;19;1538;-61
2022/05/26 03:32:46;;;;;;;;;;;;;;;20.85;66.88;100897.63;7403950;19;1466;-61
2022/05/26 03:43:21;;;;;;;;;;;;;;;20.86;66.99;100926.19;7401799;19;1295;-61
2022/05/26 03:45:50;;;;;;;;;;;;;;;20.87;67.06;100937.81;7403294;19;1652;-61
2022/05/26 03:48:19;;;;;;;;;;;;;;;20.82;67.04;100937.38;7404537;19;1751;-61
2022/05/26 03:50:49;;;;;;;;;;;;;;;20.84;67.15;100936.25;7401926;19;1563;-61
2022/05/26 03:53:18;;;;;;;;;;;;;;;20.84;67.38;100921.97;7403878;19;1283;-60
2022/05/26 03:55:46;;;;;;;;;;;;;;;20.81;66.98;100939.22;7403692;19;1473;-61
2022/05/26 03:58:17;;;;;;;;;;;;;;;20.80;67.37;100934.00;7403009;19;1853;-61
2022/05/26 04:00:45;;;;;;;;;;;;;;;20.43;66.98;100860.31;7403153;19;1403;-61
2022/05/26 04:03:14;;;;;;;;;;;;;;;20.84;66.67;100927.34;7401241;19;1588;-61
2022/05/26 04:05:42;;;;;;;;;;;;;;;20.87;66.53;100948.56;7399318;19;1500;-60
2022/05/26 04:08:13;;;;;;;;;;;;;;;20.86;66.34;100938.78;7403061;19;1330;-62
2022/05/26 04:10:42;;;;;;;;;;;;;;;20.80;63.24;100942.06;7402158;19;1540;-62
2022/05/26 04:13:11;;;;;;;;;;;;;;;20.78;65.22;100926.06;7404836;19;1744;-70
2022/05/26 04:15:39;;;;;;;;;;;;;;;20.76;65.05;100924.53;7403935;19;1430;-70
2022/05/26 04:18:08;;;;;;;;;;;;;;;20.78;65.02;100942.19;7401570;19;1864;-71
2022/05/26 04:20:37;;;;;;;;;;;;;;;20.80;65.07;100952.81;7405086;19;1285;-70
2022/05/26 04:23:05;;;;;;;;;;;;;;;20.84;65.58;100954.22;7408141;19;933;-70
2022/05/26 04:25:36;;;;;;;;;;;;;;;20.88;65.62;100969.06;7408311;19;1734;-70
2022/05/26 04:28:05;;;;;;;;;;;;;;;20.86;65.51;100966.50;7410352;19;1526;-70
2022/05/26 04:30:33;;;;;;;;;;;;;;;20.85;65.73;100956.75;7408404;19;1544;-71
2022/05/26 04:33:02;;;;;;;;;;;;;;;20.94;66.04;100968.50;7411346;19;1350;-70
2022/05/26 04:35:30;;;;;;;;;;;;;;;20.96;66.00;100950.38;7410266;19;1542;-66
2022/05/26 04:37:59;;;;;;;;;;;;;;;20.98;66.24;100950.25;7410335;19;1853;-67
2022/05/26 04:40:27;;;;;;;;;;;;;;;20.97;66.48;100935.94;7410551;19;1397;-65
2022/05/26 04:42:58;;;;;;;;;;;;;;;21.08;66.03;100939.47;7407481;19;1671;-69
2022/05/26 04:45:27;;;;;;;;;;;;;;;21.20;65.74;100954.44;7409869;19;1406;-72
2022/05/26 04:47:56;;;;;;;;;;;;;;;21.15;65.63;100962.06;7409873;19;1420;-69
2022/05/26 04:50:24;;;;;;;;;;;;;;;21.13;65.81;100946.09;7410687;19;1461;-70
2022/05/26 04:52:53;;;;;;;;;;;;;;;21.16;65.57;100950.34;7402824;19;1786;-68
2022/05/26 04:55:21;;;;;;;;;;;;;;;21.17;65.73;100944.81;7409613;19;1588;-69
2022/05/26 04:57:52;;;;;;;;;;;;;;;21.28;65.51;100938.41;7409753;19;1845;-69
2022/05/26 05:00:23;;;;;;;;;;;;;;;21.37;65.08;100936.69;7410656;19;1639;-69
2022/05/26 05:02:53;;;;;;;;;;;;;;;21.28;65.37;100937.56;7405288;19;1461;-68
2022/05/26 05:05:22;;;;;;;;;;;;;;;21.28;65.50;100938.41;7409471;19;1552;-65
2022/05/26 05:07:50;;;;;;;;;;;;;;;21.23;65.81;100954.16;7410378;19;1402;-67
2022/05/26 05:10:19;;;;;;;;;;;;;;;21.30;65.86;100933.72;7408822;19;1467;-66
2022/05/26 05:12:48;;;;;;;;;;;;;;;21.36;65.50;100938.53;7407743;19;1280;-75
2022/05/26 05:15:19;;;;;;;;;;;;;;;21.38;65.85;100946.44;7409811;19;1665;-69
2022/05/26 05:17:50;;;;;;;;;;;;;;;21.37;65.81;100934.00;7409518;19;1829;-70
2022/05/26 05:20:18;;;;;;;;;;;;;;;21.40;65.52;100929.16;7409349;19;1420;-70
2022/05/26 05:22:48;;;;;;;;;;;;;;;21.45;65.49;100947.59;7411439;19;940;-70
2022/05/26 05:25:19;;;;;;;;;;;;;;;21.40;65.38;100933.69;7409440;19;1726;-69
2022/05/26 05:27:49;;;;;;;;;;;;;;;21.43;65.61;100950.44;7406955;19;1470;-70
2022/05/26 05:30:20;;;;;;;;;;;;;;;21.44;65.43;100946.72;7408393;19;1374;-71
2022/05/26 05:32:54;;;;;;;;;;;;;;;21.47;65.64;100953.69;7407748;19;1426;-71
2022/05/26 05:35:24;;;;;;;;;;;;;;;21.45;65.41;100935.00;7408202;19;1343;-68
2022/05/26 05:37:55;;;;;;;;;;;;;;;21.53;65.61;100960.31;7408869;19;1849;-71
2022/05/26 05:40:24;;;;;;;;;;;;;;;21.55;65.26;100958.34;7408203;19;1677;-70
2022/05/26 05:42:52;;;;;;;;;;;;;;;21.52;65.64;100969.38;7409504;19;1668;-69
2022/05/26 05:45:21;;;;;;;;;;;;;;;21.61;65.50;100965.81;7409544;19;1422;-65
2022/05/26 05:47:52;;;;;;;;;;;;;;;21.60;65.30;100974.88;7407845;19;1346;-67
2022/05/26 05:50:20;;;;;;;;;;;;;;;21.58;65.29;100953.47;7406755;19;1240;-68
2022/05/26 05:52:49;;;;;;;;;;;;;;;21.58;65.49;100985.78;7407759;19;1263;-67
2022/05/26 05:55:17;;;;;;;;;;;;;;;21.56;65.79;100977.00;7407931;19;1565;-68
2022/05/26 05:57:46;;;;;;;;;;;;;;;21.59;66.22;100967.81;7407666;19;1865;-68
2022/05/26 06:00:15;;;;;;;;;;;;;;;21.58;66.35;100947.25;7408633;19;1474;-68
2022/05/26 06:02:43;;;;;;;;;;;;;;;21.58;66.20;100964.25;7403651;19;1413;-68
2022/05/26 06:05:15;;;;;;;;;;;;;;;21.54;66.17;100962.84;7406760;19;1390;-68
2022/05/26 06:07:43;;;;;;;;;;;;;;;21.55;66.41;100963.72;7407628;19;1252;-72
2022/05/26 06:10:13;;;;;;;;;;;;;;;21.60;66.35;100964.09;7405985;19;1750;-69
2022/05/26 06:12:42;;;;;;;;;;;;;;;21.59;66.81;100978.56;7406282;19;1312;-68
2022/05/26 06:15:11;;;;;;;;;;;;;;;21.55;66.65;100974.47;7401050;19;1516;-68
2022/05/26 06:17:39;;;;;;;;;;;;;;;21.56;66.30;100976.16;7400403;19;1522;-69
2022/05/26 06:20:10;;;;;;;;;;;;;;;21.61;66.76;100982.81;7396303;19;1816;-69
2022/05/26 06:22:42;;;;;;;;;;;;;;;21.62;66.64;100997.09;7401923;19;1315;-69
2022/05/26 06:25:11;;;;;;;;;;;;;;;21.60;66.30;100974.88;7404178;19;1652;-69
2022/05/26 06:30:21;;;;;;;;;;;;;;;21.59;66.87;100987.47;7406212;19;1603;-68
2022/05/26 06:38:15;;;;;;;;;;;;;;;21.63;66.51;100998.81;7406369;19;1833;-68
2022/05/26 06:40:44;;;;;;;;;;;;;;;21.60;66.72;101009.84;7406174;19;1315;-69
2022/05/26 06:43:14;;;;;;;;;;;;;;;21.59;66.67;101002.78;7405897;19;1648;-69
2022/05/26 06:45:43;;;;;;;;;;;;;;;21.63;66.21;100988.03;7405849;19;1304;-68
2022/05/26 06:48:12;;;;;;;;;;;;;;;21.60;66.55;101004.47;7406707;19;1366;-69
2022/05/26 06:50:40;;;;;;;;;;;;;;;21.59;66.53;100992.88;7404264;19;1616;-68
2022/05/26 06:53:09;;;;;;;;;;;;;;;21.61;66.25;101006.19;7406861;19;1723;-68
2022/05/26 06:55:40;;;;;;;;;;;;;;;21.62;66.42;100991.72;7406764;19;1609;-68
2022/05/26 06:58:08;;;;;;;;;;;;;;;21.62;66.36;101003.31;7406593;19;1853;-69
2022/05/26 07:00:37;;;;;;;;;;;;;;;21.64;66.39;101005.88;7402562;19;1425;-69
2022/05/26 07:03:05;;;;;;;;;;;;;;;21.65;66.74;101000.34;7403650;19;1780;-68
2022/05/26 07:05:37;;;;;;;;;;;;;;;21.64;66.34;100995.94;7406653;19;1334;-68
2022/05/26 07:08:05;;;;;;;;;;;;;;;21.58;66.64;100995.69;7406718;19;1601;-68
2022/05/26 07:10:34;;;;;;;;;;;;;;;21.60;66.74;101001.78;7407193;19;1763;-68
2022/05/26 07:13:05;;;;;;;;;;;;;;;21.61;66.66;101020.47;7405184;19;1712;-68
2022/05/26 07:15:34;;;;;;;;;;;;;;;21.65;66.48;101021.88;7404587;19;1633;-68
2022/05/26 07:18:05;;;;;;;;;;;;;;;21.66;66.39;101003.88;7405629;19;1589;-68
2022/05/26 07:20:34;;;;;;;;;;;;;;;21.66;66.53;101030.78;7405174;19;1200;-68
2022/05/26 07:23:02;;;;;;;;;;;;;;;21.66;66.39;101017.34;7406212;19;1066;-68
2022/05/26 07:25:31;;;;;;;;;;;;;;;21.65;66.63;101010.28;7404630;19;1711;-69
2022/05/26 07:27:59;;;;;;;;;;;;;;;21.64;66.47;101041.69;7404586;19;1616;-68
2022/05/26 07:30:30;;;;;;;;;;;;;;;21.65;66.71;101040.72;7404625;19;1530;-68
2022/05/26 07:32:59;;;;;;;;;;;;;;;21.65;66.65;101029.09;7403761;19;1581;-68
2022/05/26 07:35:27;;;;;;;;;;;;;;;21.66;66.38;101030.78;7403798;19;1428;-67
2022/05/26 07:43:17;;;;;;;;;;;;;;;21.67;66.52;101032.50;7406700;19;1120;-66
2022/05/26 07:45:49;;;;;;;;;;;;;;;21.68;66.36;101023.41;7401479;19;1736;-65
2022/05/26 07:48:17;;;;;;;;;;;;;;;21.69;66.50;101025.13;7404414;19;1483;-66
2022/05/26 07:50:45;;;;;;;;;;;;;;;21.71;66.56;101016.91;7402802;19;1613;-66
2022/05/26 07:53:14;;;;;;;;;;;;;;;21.71;66.35;101041.97;7405541;19;1542;-66
2022/05/26 07:55:43;;;;;;;;;;;;;;;21.72;66.38;101026.66;7409710;19;1521;-66
2022/05/26 07:58:11;;;;;;;;;;;;;;;21.71;66.16;101038.44;7412064;19;1696;-65
2022/05/26 08:00:40;;;;;;;;;;;;;;;21.67;66.55;101027.13;7408154;19;1840;-65
2022/05/26 08:03:11;;;;;;;;;;;;;;;21.72;66.42;101027.50;7410367;19;1577;-66
2022/05/26 08:05:40;;;;;;;;;;;;;;;21.72;66.33;101024.81;7412888;19;1517;-65
2022/05/26 08:08:08;;;;;;;;;;;;;;;21.73;66.36;101031.91;7411469;19;1648;-67
2022/05/26 08:10:38;;;;;;;;;;;;;;;21.75;66.24;101029.09;7410940;19;1655;-65
2022/05/26 08:13:07;;;;;;;;;;;;;;;21.75;66.08;101035.31;7411275;19;1621;-65
2022/05/26 08:15:35;;;;;;;;;;;;;;;21.73;66.46;101058.00;7410695;19;1370;-66
2022/05/26 08:18:03;;;;;;;;;;;;;;;21.68;66.33;101049.50;7410781;19;1279;-66
2022/05/26 08:20:34;;;;;;;;;;;;;;;21.71;66.37;101060.81;7408431;19;1845;-66
2022/05/26 08:23:03;;;;;;;;;;;;;;;21.69;66.73;101052.03;7412940;19;982;-66
2022/05/26 08:25:32;;;;;;;;;;;;;;;21.71;66.48;101041.97;7410945;19;1689;-66
2022/05/26 08:28:00;;;;;;;;;;;;;;;21.73;66.48;101055.28;7410572;19;1556;-66
2022/05/26 08:30:29;;;;;;;;;;;;;;;21.73;66.55;101036.47;7410414;19;1557;-66
2022/05/26 08:32:58;;;;;;;;;;;;;;;21.72;66.34;101038.28;7411154;19;1334;-66
2022/05/26 08:35:27;;;;;;;;;;;;;;;21.74;66.43;101055.13;7410335;19;1668;-65
2022/05/26 08:37:58;;;;;;;;;;;;;;;21.72;66.69;101054.44;7411187;19;1619;-66
2022/05/26 08:40:35;;;;;;;;;;;;;;;21.73;66.27;101064.22;7408360;19;1834;-65
2022/05/26 08:43:05;;;;;;;;;;;;;;;21.74;66.26;101071.28;7411430;19;1539;-66
2022/05/26 08:45:34;;;;;;;;;;;;;;;21.71;66.37;101076.13;7409569;19;1768;-66
2022/05/26 08:48:03;;;;;;;;;;;;;;;21.72;66.36;101077.81;7406435;19;1500;-66
2022/05/26 08:50:34;;;;;;;;;;;;;;;21.73;66.47;101074.13;7410421;19;1302;-66
2022/05/26 08:53:09;;;;;;;;;;;;;;;21.71;66.52;101068.91;7410105;19;1746;-65
2022/05/26 08:55:40;;;;;;;;;;;;;;;21.71;66.20;101076.97;7410516;19;1699;-66
2022/05/26 08:58:11;;;;;;;;;;;;;;;21.76;66.40;101084.59;7410672;19;1739;-66
2022/05/26 09:00:41;;;;;;;;;;;;;;;21.73;66.29;101072.28;7406800;19;1851;-65
2022/05/26 09:03:23;;;;;;;;;;;;;;;21.75;66.48;101073.00;7407183;19;1511;-65
2022/05/26 09:05:54;;;;;;;;;;;;;;;21.73;66.29;101063.38;7408573;19;1782;-66
2022/05/26 09:13:49;;;;;;;;;;;;;;;21.67;66.62;101069.34;7410862;19;1474;-66
2022/05/26 09:16:18;;;;;;;;;;;;;;;21.67;66.55;101078.25;7409296;19;1233;-65
2022/05/26 09:18:46;;;;;;;;;;;;;;;21.69;66.46;101078.97;7409959;19;1834;-66
2022/05/26 09:21:17;;;;;;;;;;;;;;;21.69;66.67;101073.56;7410337;19;1494;-66
2022/05/26 09:23:48;;;;;;;;;;;;;;;21.69;66.82;101075.44;7409502;19;1538;-66
2022/05/26 09:26:18;;;;;;;;;;;;;;;21.69;66.90;101075.44;7408576;19;1534;-66
2022/05/26 09:28:48;;;;;;;;;;;;;;;21.69;66.64;101076.28;7409469;19;1537;-66
2022/05/26 09:31:28;;;;;;;;;;;;;;;21.72;66.41;101078.66;7409641;19;1530;-65
2022/05/26 09:34:07;;;;;;;;;;;;;;;21.69;66.65;101078.97;7409106;19;1545;-65
2022/05/26 09:36:40;;;;;;;;;;;;;;;21.69;66.81;101065.50;7407090;19;1552;-65
2022/05/26 09:39:12;;;;;;;;;;;;;;;21.67;66.54;101080.94;7409095;19;1857;-65
2022/05/26 09:41:41;;;;;;;;;;;;;;;21.69;66.95;101070.88;7408731;19;1358;-68
2022/05/26 09:44:23;;;;;;;;;;;;;;;21.75;66.63;101081.06;7408012;19;1557;-68
2022/05/26 09:46:53;;;;;;;;;;;;;;;21.74;66.46;101073.97;7407306;19;1469;-74
2022/05/26 09:49:24;;;;;;;;;;;;;;;21.77;66.90;101076.38;7408526;19;1613;-68
2022/05/26 09:51:53;;;;;;;;;;;;;;;21.69;66.92;101068.19;7408880;19;1604;-68
2022/05/26 09:54:26;;;;;;;;;;;;;;;21.68;67.07;101066.47;7406122;19;1542;-68
2022/05/26 09:56:55;;;;;;;;;;;;;;;21.65;66.71;101051.47;7408769;19;1635;-68
2022/05/26 09:59:27;;;;;;;;;;;;;;;21.70;67.12;101064.50;7406158;19;1846;-68
2022/05/26 10:01:59;;;;;;;;;;;;;;;21.69;66.72;101068.19;7406681;19;1609;-68
2022/05/26 10:04:38;;;;;;;;;;;;;;;21.67;66.85;101069.34;7405532;19;1526;-68
2022/05/26 10:07:11;;;;;;;;;;;;;;;21.67;65.55;101066.66;7407920;19;1395;-68
2022/05/26 10:09:46;;;;;;;;;;;;;;;21.71;63.21;101066.19;7407699;19;1311;-71
2022/05/26 10:12:20;;;;;;;;;;;;;;;21.77;64.13;101071.00;7406014;19;1325;-68
2022/05/26 10:15:08;;;;;;;;;;;;;;;21.65;64.56;101066.78;7406017;19;1547;-68
2022/05/26 10:17:46;;;;;;;;;;;;;;;21.67;65.79;101059.41;7403217;19;1276;-64
2022/05/26 10:20:21;;;;;;;;;;;;;;;21.68;65.98;101053.03;7405690;19;1841;-65
2022/05/26 10:22:54;;;;;;;;;;;;;;;21.77;65.61;101049.47;7408465;19;1200;-60
2022/05/26 10:25:29;;;;;;;;;;;;;;;21.89;65.77;101065.44;7406388;19;1687;-65
2022/05/26 10:28:05;;;;;;;;;;;;;;;21.88;65.68;101043.03;7405027;19;1555;-65
2022/05/26 10:30:37;;;;;;;;;;;;;;;21.80;66.34;101037.53;7406026;19;1425;-69
2022/05/26 10:33:13;;;;;;;;;;;;;;;21.26;67.38;101050.69;7404334;19;1620;-66
2022/05/26 10:35:44;;;;;;;;;;;;;;;20.31;66.80;101059.34;7407139;19;1595;-66
2022/05/26 10:38:19;;;;;;;;;;;;;;;19.63;66.93;101035.72;7405818;19;1331;-65
2022/05/26 10:40:55;;;;;;;;;;;;;;;19.84;63.38;101030.34;7406865;19;1851;-63
2022/05/26 10:43:26;;;;;;;;;;;;;;;19.62;63.32;101040.25;7407655;19;1379;-68
2022/05/26 10:45:56;;;;;;;;;;;;;;;19.56;62.04;101050.66;7406523;19;1596;-68
2022/05/26 10:48:28;;;;;;;;;;;;;;;19.57;62.58;101061.22;7404207;19;1515;-66
2022/05/26 10:51:01;;;;;;;;;;;;;;;19.59;62.06;101031.59;7406371;19;1675;-67
2022/05/26 10:53:33;;;;;;;;;;;;;;;19.55;62.00;101028.31;7406679;19;1513;-66
2022/05/26 10:56:18;;;;;;;;;;;;;;;19.46;61.33;101019.25;7405878;19;1640;-67
2022/05/26 10:58:49;;;;;;;;;;;;;;;19.46;61.37;101029.13;7405643;19;1625;-67
2022/05/26 11:01:19;;;;;;;;;;;;;;;19.23;61.26;101006.97;7403624;19;1853;-68
2022/05/26 11:03:50;;;;;;;;;;;;;;;19.23;60.85;101018.53;7406640;19;1636;-68
2022/05/26 11:06:24;;;;;;;;;;;;;;;19.26;61.80;101020.97;7405746;19;1185;-68
2022/05/26 11:08:56;;;;;;;;;;;;;;;19.47;62.30;101014.72;7405644;19;1336;-66
2022/05/26 11:11:30;;;;;;;;;;;;;;;19.51;62.41;101002.75;7405695;19;1429;-66
2022/05/26 11:14:01;;;;;;;;;;;;;;;19.60;62.37;101017.22;7405456;19;1542;-68
2022/05/26 11:19:24;;;;;;;;;;;;;;;19.55;62.69;101000.66;7405468;19;1227;-66
2022/05/26 11:21:52;;;;;;;;;;;;;;;19.46;62.97;101005.84;7406937;19;932;-68
2022/05/26 11:24:21;;;;;;;;;;;;;;;19.61;62.56;101005.50;7402138;19;1770;-67
2022/05/26 11:26:56;;;;;;;;;;;;;;;19.62;63.28;101004.53;7402167;19;1506;-68
2022/05/26 11:29:26;;;;;;;;;;;;;;;20.21;62.46;101003.78;7404104;19;1324;-69
2022/05/26 11:37:35;;;;;;;;;;;;;;;20.93;61.28;101011.63;7405937;19;1300;-71
2022/05/26 11:40:05;;;;;;;;;;;;;;;21.02;61.65;100983.91;7402877;19;1869;-70
2022/05/26 11:42:37;;;;;;;;;;;;;;;21.08;61.19;100993.25;7404120;19;1296;-69
2022/05/26 11:45:17;;;;;;;;;;;;;;;21.13;61.89;100993.63;7403073;19;1473;-67
2022/05/26 11:47:53;;;;;;;;;;;;;;;21.23;61.98;100989.97;7403827;19;1331;-64
2022/05/26 11:50:26;;;;;;;;;;;;;;;21.26;62.23;100991.50;7404649;19;1574;-68
2022/05/26 11:53:03;;;;;;;;;;;;;;;21.27;62.15;100987.84;7401911;19;1513;-70
2022/05/26 11:55:33;;;;;;;;;;;;;;;21.29;62.21;100985.84;7404032;19;1612;-70
2022/05/26 11:58:17;;;;;;;;;;;;;;;21.34;62.36;100978.16;7402120;19;1735;-69
2022/05/26 12:00:49;;;;;;;;;;;;;;;21.44;62.97;100979.03;7400900;19;1865;-69
2022/05/26 12:03:31;;;;;;;;;;;;;;;21.50;62.58;100976.75;7402670;19;1572;-69
2022/05/26 12:06:12;;;;;;;;;;;;;;;21.67;63.18;100977.84;7401230;19;1676;-71
2022/05/26 12:08:42;;;;;;;;;;;;;;;21.66;62.88;100958.13;7403746;19;1489;-70
2022/05/26 12:11:13;;;;;;;;;;;;;;;21.65;63.02;100951.91;7399832;19;1580;-66
2022/05/26 12:13:42;;;;;;;;;;;;;;;21.62;63.10;100943.28;7403396;19;1255;-66
2022/05/26 12:16:34;;;;;;;;;;;;;;;21.66;63.67;100955.44;7402970;19;1541;-67
2022/05/26 12:19:06;;;;;;;;;;;;;;;21.71;64.02;100946.94;7402470;19;1664;-66
2022/05/26 12:21:46;;;;;;;;;;;;;;;21.76;63.65;100945.47;7399330;19;1849;-65
2022/05/26 12:24:29;;;;;;;;;;;;;;;21.71;64.13;100942.38;7402331;19;1421;-64
2022/05/26 12:26:57;;;;;;;;;;;;;;;21.73;64.41;100950.31;7401755;19;1189;-64
2022/05/26 12:29:41;;;;;;;;;;;;;;;21.71;64.38;100953.16;7403162;19;1410;-67
2022/05/26 12:32:10;;;;;;;;;;;;;;;21.77;64.59;100939.09;7402580;19;1501;-65
2022/05/26 12:34:55;;;;;;;;;;;;;;;21.84;64.52;100926.75;7402102;19;1897;-66
2022/05/26 12:37:34;;;;;;;;;;;;;;;21.82;64.29;100944.88;7402930;19;1466;-66
2022/05/26 12:40:15;;;;;;;;;;;;;;;21.80;64.56;100921.78;7398694;19;1853;-66
2022/05/26 12:42:54;;;;;;;;;;;;;;;21.81;64.37;100916.25;7409220;19;1375;-67
2022/05/26 12:45:27;;;;;;;;;;;;;;;21.80;64.46;100941.47;7409618;19;1288;-62
2022/05/26 12:48:19;;;;;;;;;;;;;;;21.87;64.15;100924.75;7407764;19;1323;-65
2022/05/26 12:50:47;;;;;;;;;;;;;;;21.96;64.20;100918.44;7405374;19;1555;-65
2022/05/26 12:53:20;;;;;;;;;;;;;;;21.91;64.67;100905.44;7405849;19;1380;-66
2022/05/26 12:55:50;;;;;;;;;;;;;;;21.92;65.50;100915.19;7410470;19;1392;-64
2022/05/26 12:58:21;;;;;;;;;;;;;;;21.94;64.98;100921.28;7411029;19;1325;-68
2022/05/26 13:00:49;;;;;;;;;;;;;;;21.94;65.04;100909.66;7409783;19;1863;-65
2022/05/26 13:03:32;;;;;;;;;;;;;;;21.94;65.34;100915.06;7408293;19;1835;-61
2022/05/26 13:06:02;;;;;;;;;;;;;;;21.87;65.30;100916.66;7409262;19;1581;-62
2022/05/26 13:08:37;;;;;;;;;;;;;;;21.88;64.93;100904.88;7409181;19;1592;-64
2022/05/26 13:11:06;;;;;;;;;;;;;;;21.87;65.38;100908.59;7409678;19;1500;-66
2022/05/26 13:13:38;;;;;;;;;;;;;;;21.81;65.64;100920.81;7408856;19;1874;-68
2022/05/26 13:16:21;;;;;;;;;;;;;;;21.85;65.26;100923.03;7408797;19;1532;-66
2022/05/26 13:18:50;;;;;;;;;;;;;;;21.78;65.48;100903.09;7409620;19;1510;-66
2022/05/26 13:21:19;;;;;;;;;;;;;;;21.87;65.50;100914.81;7408548;19;1822;-66
2022/05/26 13:23:51;;;;;;;;;;;;;;;21.88;65.77;100911.09;7409434;19;1631;-67
2022/05/26 13:26:20;;;;;;;;;;;;;;;21.83;65.56;100919.66;7407900;19;1342;-64
2022/05/26 13:28:50;;;;;;;;;;;;;;;21.81;65.59;100900.13;7408190;19;1628;-68
2022/05/26 13:34:03;;;;;;;;;;;;;;;21.74;65.70;100893.63;7408960;19;1565;-67
2022/05/26 13:36:33;;;;;;;;;;;;;;;21.73;65.62;100894.63;7409198;19;1344;-67
2022/05/26 13:39:08;;;;;;;;;;;;;;;21.73;65.59;100902.72;7407396;19;1699;-64
2022/05/26 13:41:37;;;;;;;;;;;;;;;21.71;65.92;100891.25;7406705;19;1857;-67
2022/05/26 13:44:07;;;;;;;;;;;;;;;21.74;65.92;100907.09;7404038;19;1335;-64
2022/05/26 13:46:38;;;;;;;;;;;;;;;21.75;65.93;100883.72;7407757;19;1352;-67